Airfield :
LOGIN :

Register | Disclaimer

   EN    FR    IT 

 










Legend :    VFR   Marginal VFR   IFR   Intensive IFR   Very Intensive IFR
Visi :
Ceiling :
>= 8 km
>= 3000ft
5 to 8 km
1000 to 3000 ft
1500m to 5 km
500 to 1000 ft
800 to 1500m
200 to 500 ft
< 800m
< 200 ft
Symbols :   Thunderstorms  Fog  Heavy snow  Heavy precipitations  Wind > 20 kt
SIGMETs :     Misc.  Thunderstorms  Icing  Turbulence  Mountain Waves  Volcanic Ashes






- Airport Elevation : 16 ft
- IATA code : AAE


DABB - Annaba-Rabah Bitat

CURRENT METAR :
  • 181900Z 14004KT 9999 SCT040 BKN100 11/09 Q1025

EXPIRED METARs :
  • 181830Z 12003KT 9999 SCT040 BKN100 11/09 Q1025
  • 181800Z 12003KT 9999 FEW023 SCT040 BKN100 12/10 Q1026
  • 181730Z 19003KT 9999 FEW023 BKN100 12/10 Q1025
  • 181700Z 19003KT 9999 FEW023 BKN100 13/10 Q1025
  • 181630Z 16002KT 9999 FEW023 BKN100 14/10 Q1026

TAF TAF DABB
Valid from the 18 at 18:00 until the 19 at 18:00 UTC


181700Z 1818/1918 17008KT 9999 FEW026 BKN100
PROB30
TEMPO 1900/1906 VRB02KT 2000 BR BKN010
BECMG 1908/1910 04008KT
PROB30
TEMPO 1912/1918 FEW023TCU



MET'MAP, your aeronautical weather chart ! - Copyright ORBIFLY December 2007 - Disclaimer

ORBIFLY MET'MAP TEAM :

Programming & Development : Alexandra Zaïnal
Concept & original design : Baudouin d'Aumeries
Assistance for programming : Marc-Olivier Méhu
Technical & hardware support : Manuel Goepfert

Contact : metmap@orbifly.com




SOURCES & CREDITS :

   NOAA